Terminal Aerodrome Forecast
Issued by NWS Twin Cities, MN

Home | Current Version | Previous Version | Text Only | Print | Product List | Glossary On
Versions: 1 2 3 4 5 6 7 8 9 10 11 12 13 14 15 16 17 18 19 20 21 22 23 24
000
FTUS43 KMPX 042336
TAFEAU
TAF
KEAU 042336Z 0500/0524 13007KT P6SM FEW035 BKN120
     FM050900 13004KT 2SM BR SCT004 SCT120
      TEMPO 0509/0513 1/2SM FG VV002
     FM051400 18009KT P6SM SCT035 BKN250
     FM051900 20012G18KT P6SM SCT040=

USA.gov is the U.S. government's official web portal to all federal, state and local government web resources and services.